Time;durP1;ratioP1;P1;durP2;ratioP2;P2;SDS_P1;SDS_P2;PMS_P1;PMS_P2;Temp;Humidity;BMP_temperature;BMP_pressure;BME280_temperature;BME280_humidity;BME280_pressure;Samples;Min_cycle;Max_cycle;Signal;HPM_P1;HPM_P2
2022/11/30 00:01:22;;;;;;;11.30;3.87;;;;;;;-2.78;100.00;102466.23;1732880;82;21007;-87
2022/11/30 00:03:50;;;;;;;16.23;3.92;;;;;;;-2.82;100.00;102466.97;1732328;82;21234;-86
2022/11/30 00:06:21;;;;;;;11.50;3.83;;;;;;;-2.71;100.00;102470.03;1732400;81;21034;-87
2022/11/30 00:08:44;;;;;;;19.80;4.92;;;;;;;-2.63;100.00;102468.92;1728047;82;21026;-87
2022/11/30 00:11:14;;;;;;;14.45;4.50;;;;;;;-2.69;100.00;102465.47;1732190;82;21571;-86
2022/11/30 00:13:40;;;;;;;20.08;4.20;;;;;;;-2.73;100.00;102464.55;1732197;82;21045;-85
2022/11/30 00:16:07;;;;;;;11.70;3.77;;;;;;;-2.68;100.00;102472.91;1731753;82;21117;-86
2022/11/30 00:18:34;;;;;;;18.00;3.98;;;;;;;-2.73;100.00;102466.70;1770567;78;21042;-87
2022/11/30 00:21:01;;;;;;;17.92;4.97;;;;;;;-2.63;100.00;102450.94;1825756;78;20990;-86
2022/11/30 00:23:35;;;;;;;11.50;3.90;;;;;;;-2.67;100.00;102464.04;1832284;78;21589;-85
2022/11/30 00:26:08;;;;;;;17.52;4.87;;;;;;;-2.63;100.00;102454.90;1832303;78;21030;-86
2022/11/30 00:28:35;;;;;;;13.80;3.87;;;;;;;-2.63;100.00;102455.73;1832294;78;21109;-86
2022/11/30 00:31:06;;;;;;;13.28;3.75;;;;;;;-2.56;100.00;102463.51;1832278;78;21006;-87
2022/11/30 00:33:35;;;;;;;13.03;3.65;;;;;;;-2.65;100.00;102465.56;1832208;78;21038;-86
2022/11/30 00:36:09;;;;;;;11.08;4.08;;;;;;;-2.69;100.00;102473.39;1832294;78;21533;-86
2022/11/30 00:38:35;;;;;;;13.60;4.37;;;;;;;-2.65;100.00;102469.52;1832414;78;21005;-86
2022/11/30 00:41:01;;;;;;;11.25;3.55;;;;;;;-2.65;100.00;102460.77;1832186;78;21046;-86
2022/11/30 03:25:01;;;;;;;14.10;3.27;;;;;;;-2.70;100.00;102443.19;1832331;78;20899;-85
2022/11/30 03:27:27;;;;;;;19.17;3.70;;;;;;;-2.69;100.00;102424.58;1830149;78;21605;-86
2022/11/30 03:29:53;;;;;;;14.38;3.75;;;;;;;-2.73;100.00;102429.77;1829905;78;20887;-86
2022/11/30 03:32:19;;;;;;;12.15;3.00;;;;;;;-2.69;100.00;102429.02;1830262;78;21014;-86
2022/11/30 06:54:55;;;;;;;19.70;2.98;;;;;;;2.83;82.16;102443.16;1843934;75;22687;-90
2022/11/30 06:57:27;;;;;;;14.15;2.60;;;;;;;2.94;84.36;102448.14;1824121;78;20970;-87
2022/11/30 06:59:53;;;;;;;16.50;3.40;;;;;;;3.04;87.30;102439.52;1824361;78;21910;-89
2022/11/30 07:02:19;;;;;;;21.05;2.87;;;;;;;3.57;88.66;102442.72;1824427;78;20946;-90
2022/11/30 07:04:46;;;;;;;26.37;4.25;;;;;;;4.64;86.28;102445.91;1824559;78;20963;-89
2022/11/30 07:07:12;;;;;;;12.88;2.90;;;;;;;5.37;93.78;102444.61;1824479;78;21264;-91
2022/11/30 07:09:38;;;;;;;16.12;2.27;;;;;;;7.04;83.32;102452.63;1824668;77;21470;-91
2022/11/30 07:12:05;;;;;;;19.15;3.15;;;;;;;7.54;69.09;102461.56;1828117;77;21995;-91
2022/11/30 07:14:31;;;;;;;17.90;2.72;;;;;;;6.70;64.69;102450.58;1857967;77;20960;-91
2022/11/30 07:16:57;;;;;;;20.08;3.20;;;;;;;5.74;62.07;102451.82;1829279;77;21373;-91
2022/11/30 07:19:24;;;;;;;25.05;2.98;;;;;;;5.83;58.59;102444.55;1824876;77;21116;-90
2022/11/30 07:21:50;;;;;;;16.27;3.25;;;;;;;5.09;57.34;102451.84;1818034;77;21403;-90
2022/11/30 07:27:03;;;;;;;10.65;2.50;;;;;;;3.62;60.82;102447.88;1830781;77;21010;-91
2022/11/30 07:29:29;;;;;;;12.13;2.60;;;;;;;3.24;60.28;102439.23;1820782;78;21034;-90
2022/11/30 07:31:55;;;;;;;24.52;2.40;;;;;;;2.53;61.94;102449.86;1824338;78;20990;-94
2022/11/30 07:34:22;;;;;;;16.50;2.67;;;;;;;2.65;62.16;102445.94;1821644;77;21026;-91
2022/11/30 07:36:48;;;;;;;21.17;3.37;;;;;;;2.67;64.69;102451.91;1826783;77;21628;-94
2022/11/30 07:39:15;;;;;;;20.43;3.08;;;;;;;3.59;64.26;102444.73;1822188;77;20978;-95
2022/11/30 07:41:41;;;;;;;19.10;3.30;;;;;;;5.21;64.44;102442.40;1824153;78;21069;-93
2022/11/30 07:44:08;;;;;;;20.08;3.30;;;;;;;7.47;59.01;102436.02;1834581;77;21030;-94
2022/11/30 07:46:36;;;;;;;13.62;2.67;;;;;;;8.38;56.90;102433.80;1824221;78;20994;-96
2022/11/30 07:49:05;;;;;;;21.17;2.50;;;;;;;8.61;52.03;102425.45;1824220;78;21084;-93
2022/11/30 07:51:32;;;;;;;28.20;3.55;;;;;;;7.87;49.46;102422.89;1775731;80;21527;-92
2022/11/30 07:53:59;;;;;;;19.37;3.62;;;;;;;7.18;48.83;102415.55;1734701;79;21032;-91
2022/11/30 07:56:27;;;;;;;20.85;3.42;;;;;;;6.05;48.42;102420.09;1726990;83;21052;-93
2022/11/30 07:58:57;;;;;;;19.95;2.80;;;;;;;5.28;48.85;102422.46;1792111;79;21086;-94
2022/11/30 08:01:28;;;;;;;12.80;3.15;;;;;;;4.51;50.77;102417.95;1795125;79;22058;-95
2022/11/30 08:03:55;;;;;;;25.70;3.77;;;;;;;4.28;51.86;102426.39;1787447;79;21658;-94
2022/11/30 08:06:29;;;;;;;33.10;4.25;;;;;;;4.89;50.07;102427.93;1775976;80;21185;-94
2022/11/30 08:09:02;;;;;;;25.45;3.40;;;;;;;5.67;50.79;102428.13;1776004;80;21115;-94
2022/11/30 08:11:32;;;;;;;20.37;6.22;;;;;;;6.42;51.65;102433.05;1767832;80;26988;-94
2022/11/30 08:16:46;;;;;;;15.53;3.30;;;;;;;5.72;47.22;102431.09;1672074;85;21536;-93
2022/11/30 08:19:21;;;;;;;14.90;3.10;;;;;;;5.18;46.79;102423.22;1672493;85;21745;-92
2022/11/30 08:22:09;;;;;;;21.00;4.12;;;;;;;4.27;48.43;102429.56;1672703;85;21108;-92
2022/11/30 08:24:37;;;;;;;20.43;3.33;;;;;;;3.82;49.73;102435.03;1589403;90;21573;-94
2022/11/30 08:27:16;;;;;;;;;;;;;;;;;;;;;
2022/11/30 08:29:37;;;;;;;18.77;3.20;;;;;;;3.55;51.24;102422.05;1615807;88;21784;-91
2022/11/30 08:32:07;;;;;;;23.70;4.33;;;;;;;3.47;51.65;102412.25;1591003;88;21109;-92
2022/11/30 08:34:36;;;;;;;25.37;3.65;;;;;;;3.30;51.77;102415.91;1592630;88;21198;-95
2022/11/30 08:40:23;;;;;;;;;;;;;;;;;;;;;
2022/11/30 08:45:15;;;;;;;28.30;4.40;;;;;;;2.84;50.53;102413.69;1375721;103;21584;-93
2022/11/30 08:47:41;;;;;;;19.62;3.37;;;;;;;2.83;51.49;102397.39;1370557;104;21162;-92
2022/11/30 08:50:09;;;;;;;23.30;3.25;;;;;;;2.66;52.00;102395.19;1358982;105;21485;-94
2022/11/30 08:52:38;;;;;;;15.83;2.87;;;;;;;2.77;50.97;102399.88;1360117;104;22626;-92
2022/11/30 08:55:05;;;;;;;13.62;3.08;;;;;;;2.70;51.48;102416.98;1347229;103;21235;-93
2022/11/30 08:57:34;;;;;;;17.87;2.42;;;;;;;2.73;50.44;102400.68;1323829;108;21170;-93
2022/11/30 09:00:01;;;;;;;16.57;3.00;;;;;;;2.61;50.87;102396.16;1330539;106;21231;-88
2022/11/30 09:02:27;;;;;;;17.75;2.70;;;;;;;2.49;51.92;102405.45;1338000;105;21171;-85
2022/11/30 09:04:53;;;;;;;15.45;2.95;;;;;;;2.53;51.60;102393.97;1365428;105;21785;-85
2022/11/30 09:07:23;;;;;;;28.25;3.87;;;;;;;2.50;52.08;102406.63;1365285;105;21642;-84
2022/11/30 09:09:48;;;;;;;21.30;3.45;;;;;;;2.47;52.39;102408.76;1365985;105;22389;-84
2022/11/30 09:12:14;;;;;;;20.37;3.77;;;;;;;2.58;52.05;102406.30;1360984;104;21136;-85
2022/11/30 09:14:41;;;;;;;15.58;3.15;;;;;;;2.46;52.03;102409.77;1359899;105;21116;-84
2022/11/30 09:17:07;;;;;;;21.37;3.40;;;;;;;2.35;52.19;102391.42;1374505;103;21642;-84
2022/11/30 09:19:34;;;;;;;27.22;3.22;;;;;;;2.28;52.83;102400.55;1390880;99;21128;-84
2022/11/30 09:22:00;;;;;;;17.67;2.85;;;;;;;2.36;53.05;102420.55;1458924;97;21166;-84
2022/11/30 09:24:29;;;;;;;14.10;2.65;;;;;;;2.33;53.52;102399.58;1484899;93;21093;-84
2022/11/30 09:26:58;;;;;;;24.23;2.95;;;;;;;2.33;54.77;102401.41;1503809;95;21051;-84
2022/11/30 09:29:24;;;;;;;21.15;4.10;;;;;;;2.29;54.59;102399.55;1482107;96;21699;-84
2022/11/30 09:31:51;;;;;;;20.82;4.08;;;;;;;2.38;54.51;102397.28;1541066;91;21085;-84
2022/11/30 09:34:17;;;;;;;15.93;3.00;;;;;;;2.42;54.18;102400.45;1572670;90;21048;-83
2022/11/30 09:36:44;;;;;;;20.25;3.22;;;;;;;2.43;53.61;102415.41;1696104;82;21088;-85
2022/11/30 09:39:11;;;;;;;13.95;2.72;;;;;;;2.46;52.92;102395.13;1689228;84;21069;-84
2022/11/30 09:42:15;;;;;;;19.82;3.47;;;;;;;2.30;53.63;102403.06;1688863;83;21201;-84
2022/11/30 09:45:03;;;;;;;17.80;4.00;;;;;;;2.25;53.81;102401.70;1707868;82;21652;-84
2022/11/30 09:48:03;;;;;;;17.30;3.37;;;;;;;2.00;54.87;102396.78;1718511;82;21112;-84
2022/11/30 09:50:35;;;;;;;21.68;3.00;;;;;;;2.10;54.87;102405.13;1647332;86;21366;-85
2022/11/30 09:53:06;;;;;;;14.07;2.62;;;;;;;1.93;56.13;102396.23;1644499;86;21035;-85
2022/11/30 09:55:43;;;;;;;12.53;3.30;;;;;;;2.10;56.42;102387.34;1639547;86;21160;-85
2022/11/30 09:58:38;;;;;;;17.02;3.42;;;;;;;2.12;56.71;102381.86;1753263;81;21114;-84
2022/11/30 10:01:09;;;;;;;16.52;3.42;;;;;;;2.26;57.06;102375.46;1703752;84;21067;-84
2022/11/30 10:03:36;;;;;;;22.95;2.75;;;;;;;2.37;56.75;102380.14;1721419;82;20961;-84
2022/11/30 10:06:07;;;;;;;23.38;3.02;;;;;;;2.56;56.41;102377.69;1749277;82;21063;-83
2022/11/30 10:08:57;;;;;;;19.65;3.12;;;;;;;2.47;56.06;102389.66;1702937;84;21129;-83
2022/11/30 10:11:34;;;;;;;23.65;4.65;;;;;;;2.40;56.21;102383.30;1703228;84;21093;-84
2022/11/30 10:14:50;;;;;;;23.70;3.75;;;;;;;2.48;56.79;102383.83;1703167;84;21122;-85
2022/11/30 10:17:52;;;;;;;23.38;3.45;;;;;;;2.53;55.71;102370.89;1702331;84;21137;-84
2022/11/30 10:20:29;;;;;;;22.95;3.85;;;;;;;2.68;55.26;102377.73;1703519;84;21110;-84
2022/11/30 10:23:29;;;;;;;15.23;3.50;;;;;;;2.53;55.94;102383.33;1701111;84;21157;-83
2022/11/30 10:25:58;;;;;;;15.45;3.90;;;;;;;2.44;55.14;102378.48;1668011;84;22080;-84
2022/11/30 10:28:54;;;;;;;17.65;3.60;;;;;;;2.44;55.59;102374.02;1650569;86;20979;-84
2022/11/30 10:31:35;;;;;;;17.02;3.47;;;;;;;2.42;55.99;102381.82;1592604;90;21552;-84
2022/11/30 10:34:23;;;;;;;11.50;3.42;;;;;;;2.38;55.78;102379.98;1581885;90;21166;-85
2022/11/30 10:37:07;;;;;;;14.28;3.12;;;;;;;2.38;55.75;102370.68;1594916;88;21128;-84
2022/11/30 10:39:58;;;;;;;25.40;3.45;;;;;;;2.39;54.68;102386.14;1609042;88;21540;-84
2022/11/30 10:42:35;;;;;;;23.32;3.67;;;;;;;2.38;53.90;102376.00;1593649;89;21002;-84
2022/11/30 10:45:12;;;;;;;18.67;4.17;;;;;;;2.35;54.47;102382.11;1591092;88;21145;-85
2022/11/30 16:25:00;;;;;;;20.48;5.47;;;;;;;1.13;88.04;102430.86;1857914;77;22517;-86
2022/11/30 16:27:26;;;;;;;22.20;5.33;;;;;;;1.12;87.96;102427.88;1832738;78;21034;-86
2022/11/30 16:29:53;;;;;;;13.05;3.58;;;;;;;1.07;88.25;102432.80;1798251;78;21038;-86
2022/11/30 16:32:19;;;;;;;23.45;5.30;;;;;;;1.11;85.10;102427.52;1832724;78;20960;-85
2022/11/30 16:34:47;;;;;;;13.50;4.47;;;;;;;1.14;84.57;102436.00;1833106;78;21033;-86
2022/11/30 16:37:13;;;;;;;19.77;5.03;;;;;;;1.09;85.33;102432.98;1833213;78;21081;-85
2022/11/30 16:39:39;;;;;;;15.38;3.70;;;;;;;1.08;83.99;102439.27;1829191;78;21541;-87
2022/11/30 16:42:12;;;;;;;11.63;3.47;;;;;;;1.10;84.05;102440.45;1800316;78;21833;-86
2022/11/30 16:44:39;;;;;;;19.20;5.95;;;;;;;1.10;83.72;102437.80;1800108;79;21536;-86
2022/11/30 16:47:05;;;;;;;19.92;5.08;;;;;;;1.02;84.81;102438.55;1816189;78;20991;-86
2022/11/30 16:49:33;;;;;;;16.42;3.77;;;;;;;1.02;84.66;102436.39;1808804;78;20931;-86
2022/11/30 16:52:02;;;;;;;15.40;4.80;;;;;;;1.02;84.15;102435.89;1822219;78;21088;-85
2022/11/30 16:54:28;;;;;;;19.50;5.35;;;;;;;1.05;83.65;102450.19;1725959;82;21533;-85
2022/11/30 16:56:55;;;;;;;17.82;4.90;;;;;;;0.97;85.20;102452.78;1726400;83;21093;-86
2022/11/30 16:59:21;;;;;;;22.15;5.95;;;;;;;0.99;85.52;102445.98;1730063;82;21065;-86
2022/11/30 17:01:51;;;;;;;27.10;5.65;;;;;;;0.96;85.75;102448.44;1731633;82;21643;-85
2022/11/30 17:04:21;;;;;;;25.05;6.60;;;;;;;0.99;85.52;102443.33;1731602;82;21010;-85
2022/11/30 17:06:48;;;;;;;21.70;5.15;;;;;;;1.03;85.16;102444.68;1731790;82;21222;-85
2022/11/30 17:09:16;;;;;;;20.65;4.70;;;;;;;0.97;83.75;102439.52;1731436;82;21502;-86
2022/11/30 17:11:44;;;;;;;22.80;5.90;;;;;;;0.96;84.34;102433.02;1731929;82;21056;-86
2022/11/30 17:14:13;;;;;;;29.00;7.50;;;;;;;1.03;83.94;102432.27;1731842;82;21010;-86
2022/11/30 17:16:40;;;;;;;23.83;6.53;;;;;;;1.00;83.65;102437.02;1731845;82;21085;-85
2022/11/30 17:19:07;;;;;;;19.62;6.00;;;;;;;0.96;83.35;102432.52;1732111;82;21974;-86
2022/11/30 17:21:36;;;;;;;17.92;5.33;;;;;;;0.99;84.61;102430.05;1731773;82;21587;-86
2022/11/30 17:24:04;;;;;;;17.67;4.78;;;;;;;0.97;83.29;102430.69;1723360;82;21018;-86
2022/11/30 17:26:30;;;;;;;14.55;4.95;;;;;;;0.96;83.74;102445.78;1717976;83;21029;-86
2022/11/30 17:28:57;;;;;;;16.82;4.40;;;;;;;0.98;82.77;102436.36;1717733;83;21537;-86
2022/11/30 17:31:23;;;;;;;11.70;3.83;;;;;;;1.04;83.27;102434.42;1717624;83;21966;-85
2022/11/30 17:33:50;;;;;;;16.17;5.20;;;;;;;1.02;82.96;102437.22;1717626;83;21039;-85
2022/11/30 17:36:17;;;;;;;18.02;6.00;;;;;;;0.97;83.60;102434.67;1717857;83;21105;-86
2022/11/30 17:38:44;;;;;;;13.58;4.42;;;;;;;0.99;83.52;102444.66;1777939;78;21067;-86
2022/11/30 17:41:16;;;;;;;19.48;4.33;;;;;;;0.98;84.28;102450.95;1803128;78;20944;-86
2022/11/30 17:43:46;;;;;;;15.75;3.95;;;;;;;1.02;83.77;102450.98;1834015;78;21076;-86
2022/11/30 17:46:16;;;;;;;17.12;3.92;;;;;;;1.04;82.43;102446.38;1836730;78;21053;-86
2022/11/30 17:48:46;;;;;;;14.63;4.62;;;;;;;1.03;82.43;102454.83;1836931;78;21474;-86
2022/11/30 17:51:13;;;;;;;20.50;5.08;;;;;;;1.04;83.15;102458.31;1836841;78;21909;-86
2022/11/30 17:53:41;;;;;;;12.73;3.98;;;;;;;0.98;83.60;102469.04;1836753;78;21557;-86
2022/11/30 17:56:11;;;;;;;16.15;4.10;;;;;;;1.04;82.91;102462.30;1832224;78;21893;-86
2022/11/30 17:58:40;;;;;;;12.63;3.72;;;;;;;0.98;83.80;102462.41;1733245;81;21084;-86
2022/11/30 18:01:09;;;;;;;16.75;3.90;;;;;;;1.00;83.12;102464.42;1733429;82;21038;-87
2022/11/30 18:03:39;;;;;;;13.15;4.12;;;;;;;1.05;83.06;102459.98;1733340;81;20995;-86
2022/11/30 18:06:07;;;;;;;17.00;4.03;;;;;;;1.04;82.20;102464.95;1733596;82;21070;-85
2022/11/30 18:08:33;;;;;;;12.33;3.62;;;;;;;1.01;82.60;102466.58;1733301;82;21098;-86
2022/11/30 18:10:59;;;;;;;18.07;4.47;;;;;;;1.02;81.67;102468.24;1733567;82;20967;-86
2022/11/30 18:13:28;;;;;;;12.18;4.33;;;;;;;1.00;81.96;102468.41;1733420;81;21097;-86
2022/11/30 18:16:09;;;;;;;12.40;4.10;;;;;;;1.01;82.39;102469.23;1673913;85;21104;-87
2022/11/30 18:18:35;;;;;;;18.67;4.85;;;;;;;1.00;83.07;102475.05;1581799;90;21174;-86
2022/11/30 18:21:09;;;;;;;22.80;5.62;;;;;;;0.98;82.05;102466.88;1582492;90;21117;-86
2022/11/30 18:23:36;;;;;;;23.05;5.53;;;;;;;0.92;83.73;102476.28;1513039;94;21608;-86
2022/11/30 18:26:10;;;;;;;23.55;5.40;;;;;;;0.91;84.50;102466.63;1508906;95;21144;-85
2022/11/30 18:28:36;;;;;;;20.25;5.72;;;;;;;0.93;85.11;102469.14;1467204;97;21717;-84
2022/11/30 18:31:05;;;;;;;25.00;7.53;;;;;;;0.90;84.71;102472.43;1467507;97;21036;-85
2022/11/30 18:33:32;;;;;;;22.45;6.35;;;;;;;0.98;82.58;102475.67;1467194;97;22183;-84
2022/11/30 18:35:59;;;;;;;22.85;6.22;;;;;;;0.97;82.18;102469.17;1467226;97;21116;-84
2022/11/30 18:38:27;;;;;;;17.23;5.50;;;;;;;0.93;82.60;102477.94;1467414;97;21144;-84
2022/11/30 18:40:53;;;;;;;15.63;5.72;;;;;;;0.97;81.80;102478.47;1467480;96;21251;-85
2022/11/30 18:43:20;;;;;;;16.35;5.85;;;;;;;0.92;83.56;102482.91;1467242;97;21203;-84
2022/11/30 18:45:46;;;;;;;18.12;4.72;;;;;;;0.94;83.02;102487.56;1467315;96;21639;-84
2022/11/30 18:48:12;;;;;;;12.85;4.00;;;;;;;0.96;83.05;102484.77;1467565;97;21717;-84
2022/11/30 18:50:39;;;;;;;15.98;4.65;;;;;;;0.92;82.91;102480.26;1467307;97;21139;-84
2022/11/30 18:53:05;;;;;;;16.07;4.25;;;;;;;0.88;82.38;102490.81;1467397;97;21142;-85
2022/11/30 18:55:31;;;;;;;15.65;4.28;;;;;;;0.92;82.66;102496.19;1497885;93;21606;-85
2022/11/30 18:57:59;;;;;;;16.65;4.95;;;;;;;0.96;82.43;102494.06;1543642;93;21116;-84
2022/11/30 22:29:31;;;;;;;5.80;2.20;;;;;;;-0.34;95.57;102566.80;1858184;77;22002;-83
2022/11/30 22:31:57;;;;;;;7.00;1.92;;;;;;;-0.34;94.84;102567.63;1832928;78;21022;-83
2022/11/30 22:34:23;;;;;;;9.90;2.10;;;;;;;-0.25;93.65;102572.58;1832996;78;21062;-84
2022/11/30 22:36:49;;;;;;;7.28;2.17;;;;;;;-0.23;92.42;102574.62;1832830;78;20895;-83
2022/11/30 22:39:19;;;;;;;6.83;1.80;;;;;;;-0.14;90.38;102572.94;1827175;78;21248;-83
2022/11/30 22:41:47;;;;;;;3.27;1.67;;;;;;;-0.17;88.55;102574.55;1833362;78;21050;-84
2022/11/30 22:44:15;;;;;;;5.83;1.95;;;;;;;-0.18;88.19;102577.66;1833135;78;21077;-83
2022/11/30 22:46:45;;;;;;;9.78;2.20;;;;;;;-0.18;86.08;102576.34;1833221;78;21169;-83
2022/11/30 22:49:15;;;;;;;5.80;1.95;;;;;;;-0.13;83.22;102569.30;1832723;78;21537;-84
2022/11/30 22:51:43;;;;;;;5.92;1.72;;;;;;;-0.18;84.80;102571.53;1827955;78;20986;-84
2022/11/30 22:54:10;;;;;;;6.87;2.02;;;;;;;-0.14;85.23;102567.15;1832936;78;21494;-83
2022/11/30 22:56:40;;;;;;;4.80;2.20;;;;;;;-0.17;82.80;102569.25;1833281;78;20979;-83
2022/11/30 22:59:09;;;;;;;6.67;2.10;;;;;;;-0.15;83.96;102571.25;1832615;78;22013;-83
2022/11/30 23:01:44;;;;;;;9.13;2.35;;;;;;;-0.20;83.53;102571.69;1832936;78;21011;-83
2022/11/30 23:04:14;;;;;;;8.05;2.55;;;;;;;-0.21;84.12;102571.31;1833028;78;20990;-84
2022/11/30 23:06:42;;;;;;;4.95;1.90;;;;;;;-0.18;83.32;102555.64;1833166;78;21030;-83
2022/11/30 23:09:16;;;;;;;7.75;2.10;;;;;;;-0.13;81.83;102574.11;1832991;78;20990;-83
2022/11/30 23:11:42;;;;;;;5.78;1.98;;;;;;;-0.11;80.36;102571.34;1832848;78;21143;-83
2022/11/30 23:14:08;;;;;;;7.55;2.75;;;;;;;-0.20;80.56;102577.48;1798210;78;21005;-84
2022/11/30 23:16:36;;;;;;;8.53;2.42;;;;;;;-0.18;80.11;102570.20;1833099;78;21033;-83
2022/11/30 23:19:03;;;;;;;6.45;1.80;;;;;;;-0.18;80.06;102578.98;1832905;78;20963;-84
2022/11/30 23:21:32;;;;;;;4.40;2.00;;;;;;;-0.18;80.55;102577.66;1832655;78;21041;-83
2022/11/30 23:24:02;;;;;;;10.98;1.72;;;;;;;-0.21;80.12;102577.94;1832172;78;21127;-83
2022/11/30 23:26:34;;;;;;;7.33;1.80;;;;;;;-0.24;80.30;102580.41;1832719;78;21454;-84
2022/11/30 23:29:05;;;;;;;4.72;1.62;;;;;;;-0.20;79.52;102579.63;1767179;80;21006;-83
2022/11/30 23:31:37;;;;;;;8.75;1.80;;;;;;;-0.16;78.17;102581.51;1769654;81;21085;-84
2022/11/30 23:34:08;;;;;;;4.75;1.60;;;;;;;-0.16;77.68;102575.72;1769968;81;20994;-83
2022/11/30 23:36:35;;;;;;;4.67;1.52;;;;;;;-0.25;77.29;102576.56;1769688;81;21164;-83
2022/11/30 23:39:10;;;;;;;4.75;1.50;;;;;;;-0.22;76.69;102578.09;1769735;81;21061;-83
2022/11/30 23:41:37;;;;;;;6.72;1.50;;;;;;;-0.21;75.92;102573.97;1769873;81;20999;-83
2022/11/30 23:44:04;;;;;;;6.85;1.50;;;;;;;-0.20;76.15;102571.69;1770064;81;20954;-83
2022/11/30 23:46:30;;;;;;;6.67;1.87;;;;;;;-0.19;74.91;102571.19;1769765;81;21002;-83
2022/11/30 23:48:56;;;;;;;11.57;1.90;;;;;;;-0.20;75.23;102578.80;1769889;81;21078;-83
2022/11/30 23:51:23;;;;;;;4.12;1.40;;;;;;;-0.19;74.64;102571.19;1769441;81;21053;-83
2022/11/30 23:53:49;;;;;;;5.50;1.87;;;;;;;-0.28;74.41;102577.67;1769826;81;21120;-84
2022/11/30 23:56:18;;;;;;;5.30;1.35;;;;;;;-0.19;74.30;102572.52;1769811;81;20994;-83
2022/11/30 23:58:44;;;;;;;5.47;1.70;;;;;;;-0.31;74.82;102569.17;1769648;81;21010;-83
